Time;durP1;ratioP1;P1;durP2;ratioP2;P2;SDS_P1;SDS_P2;PMS_P1;PMS_P2;Temp;Humidity;BMP_temperature;BMP_pressure;BME280_temperature;BME280_humidity;BME280_pressure;Samples;Min_cycle;Max_cycle;Signal;HPM_P1;HPM_P2
2022/10/28 00:00:21;;;;;;;26.73;7.35;;;;;;;20.25;66.02;99501.00;5052881;28;20036;-46
2022/10/28 00:02:47;;;;;;;33.17;10.75;;;;;;;20.09;66.95;99491.97;5052640;28;20398;-46
2022/10/28 00:05:13;;;;;;;29.45;9.15;;;;;;;20.04;67.31;99500.69;5053961;28;20033;-46
2022/10/28 00:07:38;;;;;;;29.27;10.27;;;;;;;20.18;67.16;99497.69;5053883;28;20021;-46
2022/10/28 00:10:05;;;;;;;22.75;8.43;;;;;;;20.48;66.52;99495.47;5052532;28;20111;-46
2022/10/28 00:12:34;;;;;;;21.58;7.30;;;;;;;20.71;65.89;99499.00;5053832;28;20025;-46
2022/10/28 00:15:00;;;;;;;18.88;6.45;;;;;;;21.09;65.56;99495.47;5053587;28;20119;-47
2022/10/28 00:17:26;;;;;;;21.92;7.32;;;;;;;21.32;63.88;99499.72;5053767;28;20461;-46
2022/10/28 00:19:51;;;;;;;20.55;7.57;;;;;;;21.09;63.33;99492.00;5086016;28;20079;-46
2022/10/28 00:22:17;;;;;;;33.22;8.40;;;;;;;20.67;64.38;99489.88;5053703;28;20025;-46
2022/10/28 00:24:42;;;;;;;32.00;9.13;;;;;;;20.51;64.76;99486.19;5053613;28;20104;-46
2022/10/28 00:27:08;;;;;;;25.70;7.78;;;;;;;20.31;65.36;99473.38;5085934;28;20109;-46
2022/10/28 00:29:34;;;;;;;26.92;7.65;;;;;;;20.15;66.07;99478.47;5085822;28;20491;-46
2022/10/28 00:31:59;;;;;;;25.50;7.65;;;;;;;20.08;66.62;99477.00;5052175;28;20036;-46
2022/10/28 00:34:25;;;;;;;20.80;7.28;;;;;;;20.19;66.17;99477.97;5053437;28;20021;-46
2022/10/28 00:36:50;;;;;;;20.10;6.85;;;;;;;20.14;66.34;99479.53;5053332;28;20391;-46
2022/10/28 00:39:21;;;;;;;15.80;6.00;;;;;;;20.21;66.10;99491.88;5053380;28;20098;-46
2022/10/28 00:41:52;;;;;;;25.90;8.48;;;;;;;20.33;66.32;99487.25;5053303;28;20033;-45
2022/10/28 00:44:36;;;;;;;25.17;7.95;;;;;;;20.52;66.05;99487.78;5053283;28;20380;-46
2022/10/28 00:47:04;;;;;;;23.92;7.47;;;;;;;20.71;65.14;99499.00;5053122;28;20021;-46
2022/10/28 00:49:32;;;;;;;24.45;7.25;;;;;;;20.80;64.74;99496.72;5053156;28;20033;-46
2022/10/28 00:52:17;;;;;;;23.95;7.35;;;;;;;20.83;64.05;99496.22;5053088;28;20032;-46
2022/10/28 00:54:44;;;;;;;26.13;7.28;;;;;;;20.74;64.48;99491.31;5053097;28;20035;-46
2022/10/28 00:57:15;;;;;;;21.63;7.22;;;;;;;20.57;64.48;99495.84;5052918;28;20509;-46
2022/10/28 00:59:46;;;;;;;24.48;7.15;;;;;;;20.42;65.09;99484.97;5053003;28;20560;-46
2022/10/28 01:02:12;;;;;;;25.60;7.43;;;;;;;20.37;65.00;99495.56;5052542;28;20836;-46
2022/10/28 01:04:38;;;;;;;28.88;7.90;;;;;;;20.41;65.20;99491.38;5052548;28;20108;-46
2022/10/28 01:07:04;;;;;;;23.60;6.80;;;;;;;20.33;65.17;99498.72;5052834;28;20445;-46
2022/10/28 01:09:30;;;;;;;25.75;7.45;;;;;;;20.35;65.47;99504.63;5052725;28;20032;-46
2022/10/28 01:12:01;;;;;;;27.55;7.25;;;;;;;20.45;65.41;99503.16;5052703;28;20021;-46
2022/10/28 01:14:52;;;;;;;26.30;6.45;;;;;;;20.72;65.59;99503.28;5084722;28;20032;-46
2022/10/28 01:17:27;;;;;;;23.55;6.63;;;;;;;21.26;63.92;99498.06;5052579;28;20032;-46
2022/10/28 01:20:10;;;;;;;22.05;8.77;;;;;;;21.37;62.88;99495.50;5052522;28;20431;-46
2022/10/28 01:23:21;;;;;;;28.15;7.95;;;;;;;21.14;62.59;99502.72;5052503;28;20025;-46
2022/10/28 01:26:05;;;;;;;22.88;6.80;;;;;;;20.80;63.29;99502.06;5084749;28;20082;-46
2022/10/28 01:28:39;;;;;;;23.67;7.72;;;;;;;20.50;64.05;99501.38;5084568;28;20486;-46
2022/10/28 01:31:12;;;;;;;32.42;8.00;;;;;;;20.28;65.18;99505.81;5052460;28;20033;-46
2022/10/28 01:33:50;;;;;;;20.00;6.72;;;;;;;20.11;65.36;99501.31;5052358;28;20051;-45
2022/10/28 01:36:33;;;;;;;23.77;8.18;;;;;;;19.93;66.21;99494.38;5050951;28;20103;-46
2022/10/28 01:39:08;;;;;;;24.38;6.72;;;;;;;19.77;66.73;99497.03;5084489;28;20458;-46
2022/10/28 01:42:03;;;;;;;25.45;8.25;;;;;;;19.69;67.36;99498.19;5052248;28;20039;-46
2022/10/28 01:44:33;;;;;;;26.23;7.57;;;;;;;19.65;67.81;99489.06;5047942;28;20055;-46
2022/10/28 01:47:04;;;;;;;29.00;8.18;;;;;;;19.71;67.42;99493.47;5084348;28;20035;-46
2022/10/28 01:49:30;;;;;;;15.95;7.25;;;;;;;19.57;68.12;99479.63;5052058;28;20036;-46
2022/10/28 01:52:01;;;;;;;19.23;7.03;;;;;;;19.53;68.73;99483.81;5051976;28;20025;-46
2022/10/28 01:54:28;;;;;;;21.70;8.25;;;;;;;19.65;68.63;99486.41;5051995;28;20021;-46
2022/10/28 01:56:57;;;;;;;19.75;7.82;;;;;;;19.82;67.91;99487.28;5051826;28;20035;-46
2022/10/28 01:59:26;;;;;;;28.95;7.78;;;;;;;19.88;68.01;99480.16;5051889;28;20083;-46
2022/10/28 02:01:53;;;;;;;23.65;7.57;;;;;;;19.92;67.30;99473.28;5051851;28;20108;-46
2022/10/28 02:04:19;;;;;;;18.83;6.72;;;;;;;20.01;67.33;99466.53;5051881;28;20462;-46
2022/10/28 02:06:50;;;;;;;17.92;7.65;;;;;;;20.03;67.07;99467.09;5051818;28;20064;-46
2022/10/28 02:09:37;;;;;;;19.13;6.72;;;;;;;20.11;67.29;99464.00;5051875;28;20491;-45
2022/10/28 02:12:24;;;;;;;19.48;7.43;;;;;;;20.58;66.20;99467.31;5051789;28;20044;-46
2022/10/28 02:15:27;;;;;;;36.95;7.13;;;;;;;20.84;65.99;99461.28;5051144;28;20131;-46
2022/10/28 02:18:32;;;;;;;25.08;7.25;;;;;;;21.12;64.19;99464.81;5051661;28;20047;-46
2022/10/28 02:21:26;;;;;;;18.50;6.75;;;;;;;21.18;64.13;99455.78;5083855;28;20025;-46
2022/10/28 02:24:25;;;;;;;22.75;7.10;;;;;;;21.10;63.80;99454.38;5033808;28;20112;-46
2022/10/28 02:27:09;;;;;;;24.52;7.75;;;;;;;21.22;63.76;99440.09;5045696;28;20037;-46
2022/10/28 02:29:54;;;;;;;23.33;6.93;;;;;;;21.63;63.35;99443.16;5050537;28;20044;-46
2022/10/28 02:32:26;;;;;;;23.35;7.00;;;;;;;22.02;61.94;99434.91;5083866;28;20039;-46
2022/10/28 02:34:55;;;;;;;25.73;6.82;;;;;;;22.23;60.68;99433.16;5051835;28;20032;-46
2022/10/28 02:37:27;;;;;;;19.58;6.22;;;;;;;22.14;60.17;99433.66;5050085;28;20031;-46
2022/10/28 02:39:58;;;;;;;21.67;6.22;;;;;;;21.89;60.62;99428.13;5051552;28;20103;-46
2022/10/28 02:42:50;;;;;;;22.63;6.63;;;;;;;21.68;60.89;99422.63;5051431;28;20048;-46
2022/10/28 02:45:20;;;;;;;21.45;7.40;;;;;;;21.43;61.60;99431.25;5050212;28;20040;-46
2022/10/28 02:47:51;;;;;;;20.42;7.13;;;;;;;21.35;61.97;99432.47;5051371;28;20411;-46
2022/10/28 02:50:23;;;;;;;18.35;7.05;;;;;;;21.44;61.78;99437.38;5051670;28;20028;-46
2022/10/28 02:52:54;;;;;;;26.00;6.97;;;;;;;21.46;62.27;99429.94;5051477;28;20479;-46
2022/10/28 02:55:23;;;;;;;26.48;6.25;;;;;;;21.63;61.96;99440.47;5050086;28;20033;-46
2022/10/28 02:57:49;;;;;;;21.10;6.82;;;;;;;21.72;61.56;99449.66;5050092;28;20032;-46
2022/10/28 03:00:19;;;;;;;23.05;6.55;;;;;;;21.74;60.70;99440.31;5051231;28;20029;-46
2022/10/28 03:02:44;;;;;;;25.50;7.00;;;;;;;21.71;60.92;99446.19;5083538;28;20033;-46
2022/10/28 03:05:10;;;;;;;19.15;7.22;;;;;;;21.46;60.93;99445.94;5083451;28;20155;-46
2022/10/28 03:07:36;;;;;;;21.35;7.15;;;;;;;21.13;61.90;99443.19;5051266;28;20375;-46
2022/10/28 03:10:02;;;;;;;25.10;6.88;;;;;;;20.96;62.86;99445.13;5051139;28;20021;-46
2022/10/28 03:12:27;;;;;;;19.35;7.43;;;;;;;20.91;62.59;99440.56;5050025;28;20562;-46
2022/10/28 03:14:53;;;;;;;22.13;7.45;;;;;;;20.80;63.57;99441.50;5083230;28;20049;-46
2022/10/28 03:17:18;;;;;;;22.67;6.50;;;;;;;20.80;63.45;99436.16;5049761;28;20076;-46
2022/10/28 03:19:44;;;;;;;22.20;7.68;;;;;;;20.71;63.35;99432.31;5083460;28;20037;-46
2022/10/28 03:22:10;;;;;;;17.77;6.45;;;;;;;20.56;63.49;99440.88;5051075;28;20013;-46
2022/10/28 03:24:35;;;;;;;16.48;7.15;;;;;;;20.47;63.87;99443.19;5051061;28;20021;-46
2022/10/28 03:27:01;;;;;;;27.85;7.03;;;;;;;20.55;64.07;99449.97;5053107;28;20103;-46
2022/10/28 03:29:27;;;;;;;22.90;6.75;;;;;;;21.00;63.96;99456.13;5054610;28;20029;-46
2022/10/28 03:31:52;;;;;;;25.52;7.15;;;;;;;21.35;62.37;99459.19;5053316;28;20017;-46
2022/10/28 03:34:18;;;;;;;23.23;6.78;;;;;;;21.49;61.60;99450.78;5054644;28;20028;-46
2022/10/28 03:36:43;;;;;;;22.02;6.55;;;;;;;21.58;60.91;99441.25;5054423;28;20031;-46
2022/10/28 03:39:09;;;;;;;21.63;7.35;;;;;;;21.44;60.59;99430.19;5053225;28;20078;-46
2022/10/28 03:41:35;;;;;;;24.63;6.15;;;;;;;21.00;61.46;99434.78;5054441;28;20017;-46
2022/10/28 03:44:00;;;;;;;23.23;6.55;;;;;;;20.62;62.45;99425.78;5054444;28;20025;-46
2022/10/28 03:46:26;;;;;;;22.75;7.03;;;;;;;20.33;63.64;99426.75;5054344;28;20032;-46
2022/10/28 03:48:51;;;;;;;29.15;6.72;;;;;;;20.27;64.03;99434.91;5054324;28;20022;-46
2022/10/28 03:51:17;;;;;;;21.73;6.70;;;;;;;20.34;64.04;99436.38;5054247;28;20100;-46
2022/10/28 03:53:43;;;;;;;22.15;6.45;;;;;;;20.85;63.77;99424.75;5054266;28;20059;-46
2022/10/28 03:56:10;;;;;;;18.20;6.68;;;;;;;21.37;62.06;99416.22;5086496;28;20120;-46
2022/10/28 03:58:36;;;;;;;20.75;6.55;;;;;;;21.84;61.39;99418.22;5054071;28;20107;-46
2022/10/28 04:01:04;;;;;;;28.23;7.25;;;;;;;22.10;59.60;99408.50;5086333;28;20487;-46
2022/10/28 04:03:30;;;;;;;23.58;6.35;;;;;;;21.87;59.84;99415.03;5054080;28;20487;-46
2022/10/28 04:05:56;;;;;;;20.05;5.82;;;;;;;21.76;59.63;99420.56;5054172;28;20029;-46
2022/10/28 04:08:21;;;;;;;19.00;6.05;;;;;;;21.60;59.94;99414.28;5053917;28;20029;-46
2022/10/28 04:10:47;;;;;;;32.17;6.97;;;;;;;21.69;60.29;99421.59;5053948;28;20024;-46
2022/10/28 04:13:14;;;;;;;20.38;6.95;;;;;;;21.72;59.89;99423.72;5053833;28;20048;-46
2022/10/28 04:15:40;;;;;;;21.92;6.15;;;;;;;21.71;59.97;99427.47;5053523;28;20052;-46
2022/10/28 04:18:05;;;;;;;21.52;7.05;;;;;;;21.84;60.01;99428.09;5053716;28;20029;-46
2022/10/28 04:20:31;;;;;;;16.30;5.72;;;;;;;21.96;59.70;99423.38;5052358;28;20025;-46
2022/10/28 04:22:57;;;;;;;25.45;7.13;;;;;;;22.14;58.79;99425.63;5053707;28;20017;-46
2022/10/28 04:25:24;;;;;;;22.90;6.28;;;;;;;21.84;58.52;99422.75;5052352;28;20440;-46
2022/10/28 04:27:50;;;;;;;21.02;6.15;;;;;;;21.24;59.78;99428.09;5054142;28;20025;-46
2022/10/28 04:30:16;;;;;;;21.80;7.57;;;;;;;20.82;61.01;99420.69;5053457;28;20029;-46
2022/10/28 04:32:43;;;;;;;23.25;7.15;;;;;;;20.54;61.69;99411.00;5085755;28;20021;-46
2022/10/28 04:35:11;;;;;;;18.77;6.68;;;;;;;20.35;62.34;99413.16;5052244;28;20100;-45
2022/10/28 04:37:37;;;;;;;19.00;6.55;;;;;;;20.31;62.73;99423.50;5051940;28;20059;-46
2022/10/28 04:40:04;;;;;;;25.17;6.97;;;;;;;20.31;62.63;99422.72;5052128;28;20031;-46
2022/10/28 04:42:29;;;;;;;49.00;9.48;;;;;;;20.35;63.28;99443.28;5053322;28;20028;-46
2022/10/28 04:44:55;;;;;;;36.38;7.10;;;;;;;20.79;63.13;99444.44;5053271;28;20402;-46
2022/10/28 04:47:20;;;;;;;17.65;6.82;;;;;;;21.31;61.59;99439.38;5053191;28;20399;-46
2022/10/28 04:49:46;;;;;;;18.52;6.15;;;;;;;21.51;60.57;99438.78;5051939;28;20029;-46
2022/10/28 04:52:12;;;;;;;32.38;6.38;;;;;;;21.59;60.44;99442.03;5053100;28;20025;-46
2022/10/28 04:54:37;;;;;;;24.73;6.47;;;;;;;21.73;59.68;99456.59;5051884;28;20109;-46
2022/10/28 04:57:03;;;;;;;14.75;5.70;;;;;;;21.80;59.53;99462.53;5035046;28;20025;-46
2022/10/28 04:59:29;;;;;;;38.72;8.15;;;;;;;21.84;59.55;99452.16;5085288;28;20105;-46
2022/10/28 05:01:54;;;;;;;24.90;6.35;;;;;;;22.15;58.96;99455.84;5052938;28;20562;-46
2022/10/28 05:04:20;;;;;;;27.67;6.38;;;;;;;22.28;58.01;99459.97;5051606;28;20060;-46
2022/10/28 05:06:46;;;;;;;30.75;7.13;;;;;;;22.36;57.74;99450.66;5085170;28;20106;-46
2022/10/28 05:09:12;;;;;;;21.77;7.20;;;;;;;22.08;56.71;99452.59;5052835;28;20032;-46
2022/10/28 05:11:37;;;;;;;26.17;7.22;;;;;;;21.44;57.86;99448.88;5052734;28;20028;-46
2022/10/28 05:14:03;;;;;;;24.65;7.03;;;;;;;20.96;60.11;99461.16;5051454;28;20086;-46
2022/10/28 05:16:29;;;;;;;25.48;7.95;;;;;;;20.80;60.53;99470.84;5084708;28;20045;-46
2022/10/28 05:18:54;;;;;;;18.77;7.00;;;;;;;20.59;61.65;99475.13;5068164;28;20577;-46
2022/10/28 05:21:20;;;;;;;28.33;7.68;;;;;;;20.58;61.71;99478.00;5052878;28;20452;-46
2022/10/28 05:23:46;;;;;;;39.55;7.97;;;;;;;20.68;62.36;99462.94;5052615;28;20013;-46
2022/10/28 05:26:12;;;;;;;29.92;7.55;;;;;;;21.09;61.86;99463.44;5052692;28;20103;-46
2022/10/28 05:28:38;;;;;;;34.65;6.60;;;;;;;21.50;61.00;99457.75;5052390;28;20041;-46
2022/10/28 05:31:03;;;;;;;21.75;6.15;;;;;;;21.76;59.00;99460.63;5051125;28;20395;-46
2022/10/28 05:33:29;;;;;;;28.90;7.28;;;;;;;21.62;59.10;99455.72;5052350;28;20017;-46
2022/10/28 05:35:57;;;;;;;20.40;5.45;;;;;;;21.38;58.48;99457.06;5052225;28;20037;-46
2022/10/28 05:38:23;;;;;;;31.25;7.03;;;;;;;20.95;59.35;99451.56;5052183;28;20023;-46
2022/10/28 05:40:48;;;;;;;17.88;5.93;;;;;;;20.63;60.00;99444.22;5052443;28;20033;-46
2022/10/28 05:43:14;;;;;;;22.55;6.28;;;;;;;20.42;60.47;99453.78;5052190;28;20098;-46
2022/10/28 05:45:40;;;;;;;20.42;6.75;;;;;;;20.25;61.07;99456.47;5084371;28;20120;-46
2022/10/28 05:48:06;;;;;;;23.98;6.68;;;;;;;20.11;61.82;99449.88;5084477;28;20108;-46
2022/10/28 05:50:32;;;;;;;23.73;6.90;;;;;;;19.98;62.24;99448.38;5083858;28;20021;-46
2022/10/28 05:52:58;;;;;;;25.65;7.07;;;;;;;19.86;62.97;99436.97;5050740;28;20028;-46
2022/10/28 05:55:27;;;;;;;23.65;7.25;;;;;;;19.69;63.60;99428.94;5050762;28;20029;-45
2022/10/28 05:57:54;;;;;;;22.92;6.80;;;;;;;19.67;64.15;99425.72;5051846;28;20068;-46
2022/10/28 06:00:22;;;;;;;26.33;7.75;;;;;;;19.51;64.96;99422.78;5052134;28;20104;-46
2022/10/28 06:02:48;;;;;;;21.67;7.53;;;;;;;19.38;65.11;99439.09;5050807;28;20560;-46
2022/10/28 06:05:14;;;;;;;22.05;7.22;;;;;;;19.35;65.68;99436.91;5051856;28;20033;-46
2022/10/28 06:07:40;;;;;;;23.20;7.25;;;;;;;19.56;66.08;99443.41;5051814;28;20063;-46
2022/10/28 06:10:08;;;;;;;33.72;7.97;;;;;;;20.03;65.63;99440.44;5051706;28;20058;-46
2022/10/28 06:12:33;;;;;;;24.13;6.45;;;;;;;20.54;64.03;99445.66;5051793;28;20440;-46
2022/10/28 06:14:59;;;;;;;24.10;7.25;;;;;;;21.02;62.51;99452.16;5051480;28;20080;-46
2022/10/28 06:17:25;;;;;;;28.35;6.72;;;;;;;21.23;61.18;99445.19;5051839;28;20013;-46
2022/10/28 06:19:51;;;;;;;26.25;7.28;;;;;;;21.45;60.09;99463.03;5050378;28;20025;-46
2022/10/28 06:22:17;;;;;;;23.70;6.88;;;;;;;21.19;59.38;99473.44;5051644;28;20024;-46
2022/10/28 06:24:43;;;;;;;22.00;7.30;;;;;;;20.71;60.30;99470.47;5051658;28;20051;-46
2022/10/28 06:27:08;;;;;;;24.08;8.20;;;;;;;20.28;61.10;99471.16;5051598;28;20051;-46
2022/10/28 06:29:35;;;;;;;24.27;7.25;;;;;;;19.94;62.07;99473.84;5051807;28;20058;-46
2022/10/28 06:32:00;;;;;;;19.67;7.03;;;;;;;19.69;63.61;99464.38;5050347;28;20147;-46
2022/10/28 06:34:26;;;;;;;24.25;7.78;;;;;;;19.43;64.84;99457.00;5051655;28;20504;-46
2022/10/28 06:36:52;;;;;;;24.58;7.97;;;;;;;19.25;65.09;99464.13;5050158;28;20036;-46
2022/10/28 06:39:18;;;;;;;26.45;8.55;;;;;;;19.08;65.86;99473.94;5051464;28;20025;-46
2022/10/28 06:41:43;;;;;;;26.25;7.85;;;;;;;19.01;66.37;99468.72;5051520;28;20514;-46
2022/10/28 06:44:09;;;;;;;35.13;8.82;;;;;;;19.15;66.65;99467.41;5050145;28;20403;-46
2022/10/28 06:46:35;;;;;;;24.75;7.45;;;;;;;19.38;66.20;99475.53;5033537;28;20029;-46
2022/10/28 06:49:02;;;;;;;24.75;7.80;;;;;;;19.54;65.43;99480.91;5051418;28;20091;-46
2022/10/28 06:51:29;;;;;;;35.20;7.97;;;;;;;19.71;65.69;99490.81;5051461;28;20105;-46
2022/10/28 06:53:54;;;;;;;28.75;6.68;;;;;;;20.16;64.90;99476.59;5050168;28;20032;-46
2022/10/28 06:56:20;;;;;;;25.77;7.97;;;;;;;20.62;61.90;99484.47;5049964;28;20017;-46
2022/10/28 06:58:53;;;;;;;24.67;7.50;;;;;;;20.65;62.46;99479.47;5051319;28;20025;-46
2022/10/28 07:01:20;;;;;;;34.60;7.90;;;;;;;20.92;61.64;99481.38;5050968;28;20021;-46
2022/10/28 07:03:48;;;;;;;20.88;7.32;;;;;;;20.92;60.87;99494.72;5055498;28;20390;-46
2022/10/28 07:06:15;;;;;;;38.72;7.40;;;;;;;20.90;61.52;99497.63;5053826;28;20025;-46
2022/10/28 07:08:41;;;;;;;25.08;6.80;;;;;;;21.31;60.82;99500.00;5053769;28;20029;-46
2022/10/28 07:11:07;;;;;;;34.92;7.22;;;;;;;21.75;60.03;99505.25;5037078;28;20017;-46
2022/10/28 07:13:33;;;;;;;24.20;6.68;;;;;;;22.25;58.27;99512.09;5053734;28;20437;-46
2022/10/28 07:16:00;;;;;;;29.33;6.50;;;;;;;22.58;57.54;99514.69;5054703;28;20048;-46
2022/10/28 07:18:28;;;;;;;23.83;6.25;;;;;;;22.65;56.72;99509.94;5070133;28;20048;-46
2022/10/28 07:20:57;;;;;;;25.42;7.32;;;;;;;22.78;55.94;99517.50;5070173;28;20067;-46
2022/10/28 07:23:23;;;;;;;29.83;6.47;;;;;;;23.09;55.05;99525.69;5053503;28;20052;-46
2022/10/28 07:25:54;;;;;;;33.33;7.75;;;;;;;23.32;53.89;99517.19;5053455;28;20432;-46
2022/10/28 07:28:24;;;;;;;31.92;6.78;;;;;;;23.50;53.44;99515.06;5054781;28;20109;-46
2022/10/28 07:30:49;;;;;;;33.47;7.47;;;;;;;23.52;53.25;99518.28;5087000;28;20437;-46
2022/10/28 07:33:15;;;;;;;36.53;8.15;;;;;;;23.22;53.70;99525.22;5054621;28;20021;-46
2022/10/28 07:35:41;;;;;;;45.28;8.30;;;;;;;22.89;54.21;99537.88;5054519;28;20167;-46
2022/10/28 07:38:07;;;;;;;38.55;8.30;;;;;;;22.92;54.96;99541.94;5086776;28;20021;-46
2022/10/28 07:40:33;;;;;;;33.25;6.90;;;;;;;23.15;54.04;99554.09;5053122;28;20025;-46
2022/10/28 07:42:59;;;;;;;51.55;9.73;;;;;;;23.28;53.93;99550.94;5054423;28;20108;-46
2022/10/28 07:45:24;;;;;;;48.72;8.77;;;;;;;23.49;53.50;99546.44;5054691;28;20044;-47
2022/10/28 07:47:51;;;;;;;59.72;9.73;;;;;;;23.68;53.21;99552.13;5054316;28;20052;-46
2022/10/28 07:50:17;;;;;;;28.45;6.13;;;;;;;23.69;52.27;99552.91;5054245;28;20024;-46
2022/10/28 07:52:43;;;;;;;28.80;8.20;;;;;;;23.22;52.61;99553.84;5036389;28;20439;-46
2022/10/28 07:55:09;;;;;;;27.42;7.68;;;;;;;22.65;54.04;99552.75;5036412;28;20398;-46
2022/10/28 07:57:35;;;;;;;32.67;6.60;;;;;;;22.39;54.91;99557.13;5054079;28;20047;-46
2022/10/28 08:00:03;;;;;;;22.23;6.10;;;;;;;22.35;54.75;99551.47;5052828;28;20095;-46
2022/10/28 08:02:28;;;;;;;19.23;5.95;;;;;;;22.23;54.55;99548.13;5052853;28;20024;-46
2022/10/28 08:04:55;;;;;;;19.13;6.38;;;;;;;21.98;55.58;99544.19;5052671;28;20514;-46
2022/10/28 08:07:21;;;;;;;14.68;4.78;;;;;;;21.84;56.01;99548.34;5053976;28;20032;-46
2022/10/28 08:09:47;;;;;;;14.20;5.05;;;;;;;21.76;56.09;99546.16;5054001;28;20441;-46
2022/10/28 08:12:14;;;;;;;19.63;6.38;;;;;;;21.58;57.03;99552.63;5053338;28;20021;-46
2022/10/28 08:14:41;;;;;;;19.23;5.60;;;;;;;21.56;56.98;99555.56;5053591;28;20111;-47
2022/10/28 08:17:07;;;;;;;15.98;5.90;;;;;;;21.50;57.48;99548.56;5053763;28;20025;-46
2022/10/28 08:19:33;;;;;;;20.42;6.28;;;;;;;21.56;57.83;99552.88;5053804;28;20082;-46
2022/10/28 08:21:59;;;;;;;21.73;6.40;;;;;;;21.62;57.45;99557.22;5053626;28;20103;-46
2022/10/28 08:24:24;;;;;;;20.15;6.32;;;;;;;21.72;57.41;99554.66;5053732;28;20443;-46
2022/10/28 08:26:50;;;;;;;28.50;6.85;;;;;;;21.77;56.95;99553.09;5052387;28;20048;-46
2022/10/28 08:29:16;;;;;;;24.25;6.47;;;;;;;21.86;56.74;99548.91;5053566;28;20028;-46
2022/10/28 08:31:41;;;;;;;22.42;6.07;;;;;;;21.82;57.01;99551.28;5053619;28;20044;-46
2022/10/28 08:34:07;;;;;;;17.77;5.88;;;;;;;21.92;56.11;99550.56;5052183;28;20170;-46
2022/10/28 08:36:33;;;;;;;19.25;6.18;;;;;;;22.02;55.95;99545.31;5052054;28;20024;-46
2022/10/28 08:39:00;;;;;;;29.95;7.18;;;;;;;22.69;55.15;99546.59;5053322;28;20025;-46
2022/10/28 08:41:44;;;;;;;29.98;6.25;;;;;;;23.81;52.28;99536.63;5053365;28;20023;-46
2022/10/28 08:44:29;;;;;;;26.42;6.13;;;;;;;24.80;49.59;99534.38;5053531;28;20028;-46
2022/10/28 08:47:16;;;;;;;21.77;6.20;;;;;;;25.40;47.23;99544.38;5053214;28;20017;-46
2022/10/28 08:49:44;;;;;;;21.48;6.55;;;;;;;25.51;46.27;99540.53;5085468;28;20025;-46
2022/10/28 08:52:42;;;;;;;20.88;6.20;;;;;;;25.94;45.81;99543.50;5068747;28;20068;-46
2022/10/28 08:55:18;;;;;;;28.85;6.25;;;;;;;26.28;44.96;99545.38;5053025;28;20120;-46
2022/10/28 08:57:54;;;;;;;47.10;7.05;;;;;;;26.83;44.00;99537.03;5053009;28;20474;-46
2022/10/28 09:00:24;;;;;;;25.73;5.88;;;;;;;27.17;42.63;99544.19;5053119;28;20083;-46
2022/10/28 09:03:16;;;;;;;21.60;7.15;;;;;;;26.76;43.20;99550.81;5051678;28;20509;-46
2022/10/28 09:05:46;;;;;;;17.70;5.35;;;;;;;25.38;46.79;99554.59;5050257;28;20123;-46
2022/10/28 09:08:40;;;;;;;25.48;6.40;;;;;;;24.40;48.85;99559.41;5052828;28;20028;-46
2022/10/28 09:11:13;;;;;;;18.27;5.07;;;;;;;24.06;48.94;99547.34;5052064;28;20041;-46
2022/10/28 09:14:10;;;;;;;26.02;6.13;;;;;;;23.81;50.51;99550.81;5052835;28;20036;-46
2022/10/28 09:16:57;;;;;;;25.90;5.40;;;;;;;24.01;49.37;99558.06;5046799;28;20055;-46
2022/10/28 09:19:41;;;;;;;22.02;5.82;;;;;;;24.58;46.94;99556.19;5084878;28;20098;-46
2022/10/28 09:22:21;;;;;;;18.73;5.38;;;;;;;24.88;46.99;99554.50;5052605;28;20033;-46
2022/10/28 09:25:05;;;;;;;21.33;5.68;;;;;;;26.11;44.29;99551.16;5051606;28;20045;-46
2022/10/28 09:27:43;;;;;;;27.17;5.60;;;;;;;27.20;41.81;99543.59;5052509;28;20498;-46
2022/10/28 09:30:20;;;;;;;17.35;5.05;;;;;;;27.72;39.95;99551.78;5052314;28;20033;-47
2022/10/28 09:33:05;;;;;;;15.32;5.03;;;;;;;28.14;38.86;99547.38;5052412;28;20396;-47
2022/10/28 09:35:38;;;;;;;15.85;5.32;;;;;;;28.77;37.24;99541.38;5052402;28;20032;-46
2022/10/28 09:38:34;;;;;;;16.27;4.43;;;;;;;28.96;36.39;99549.41;5052285;28;20029;-47
2022/10/28 09:41:12;;;;;;;13.27;4.47;;;;;;;29.36;36.35;99540.75;5052212;28;20055;-47
2022/10/28 09:44:03;;;;;;;21.80;5.40;;;;;;;29.92;34.94;99525.13;5052272;28;20399;-47
2022/10/28 09:46:31;;;;;;;17.38;4.75;;;;;;;29.76;34.95;99527.41;5052096;28;20028;-47
2022/10/28 09:49:02;;;;;;;20.15;4.57;;;;;;;29.62;35.29;99525.56;5052100;28;20017;-47
2022/10/28 09:52:03;;;;;;;12.35;3.95;;;;;;;29.37;35.30;99524.22;5052097;28;20163;-46
2022/10/28 09:54:35;;;;;;;19.40;5.72;;;;;;;29.11;36.80;99521.28;5084289;28;20445;-47
2022/10/28 09:57:03;;;;;;;19.38;5.45;;;;;;;28.92;36.63;99529.50;5051916;28;20028;-47
2022/10/28 09:59:29;;;;;;;17.92;4.72;;;;;;;29.11;36.23;99523.97;5051964;28;20025;-46
2022/10/28 10:01:55;;;;;;;25.13;5.05;;;;;;;29.26;35.86;99531.75;5051909;28;20406;-47
2022/10/28 10:04:24;;;;;;;27.40;6.05;;;;;;;29.25;36.35;99524.75;5050617;28;20064;-47
2022/10/28 10:07:04;;;;;;;17.90;5.53;;;;;;;29.54;36.14;99523.59;5050643;28;20067;-47
2022/10/28 10:09:33;;;;;;;18.65;5.28;;;;;;;29.87;35.46;99523.38;5051977;28;20086;-47
2022/10/28 10:12:10;;;;;;;16.63;4.68;;;;;;;30.10;35.04;99517.94;5051871;28;20498;-47
2022/10/28 10:14:41;;;;;;;25.15;5.47;;;;;;;29.92;35.12;99527.84;5051870;28;20100;-47
2022/10/28 10:17:20;;;;;;;24.88;5.70;;;;;;;29.50;36.39;99522.59;5050064;28;20052;-47
2022/10/28 10:20:04;;;;;;;23.60;5.43;;;;;;;29.66;36.10;99525.72;5051822;28;20103;-47
2022/10/28 10:22:34;;;;;;;20.15;5.55;;;;;;;29.71;35.94;99520.22;5051654;28;20059;-47
2022/10/28 10:25:00;;;;;;;20.05;4.82;;;;;;;29.91;35.50;99507.31;5051642;28;20060;-47
2022/10/28 10:27:29;;;;;;;24.00;5.15;;;;;;;29.86;35.15;99505.50;5050390;28;20029;-47
2022/10/28 10:29:56;;;;;;;19.75;5.05;;;;;;;29.77;34.47;99505.47;5051649;28;20029;-46
2022/10/28 10:32:27;;;;;;;14.10;4.18;;;;;;;29.53;34.61;99515.78;5051588;28;20028;-46
2022/10/28 10:35:15;;;;;;;18.05;4.40;;;;;;;29.52;34.75;99512.28;5050786;28;20516;-47
2022/10/28 10:37:43;;;;;;;21.75;4.45;;;;;;;28.78;35.84;99502.47;5055641;28;20043;-47
2022/10/28 10:40:25;;;;;;;19.50;4.57;;;;;;;27.93;36.85;99539.63;5055663;28;20027;-46
2022/10/28 10:42:52;;;;;;;21.85;4.72;;;;;;;27.09;38.57;99549.09;5055684;28;20025;-46
2022/10/28 10:45:26;;;;;;;20.15;5.47;;;;;;;27.07;39.19;99562.06;5055525;28;20021;-46
2022/10/28 10:48:13;;;;;;;17.67;4.95;;;;;;;28.43;37.97;99547.97;5054363;28;20378;-47
2022/10/28 10:50:40;;;;;;;29.48;5.88;;;;;;;30.15;34.88;99563.84;5055492;28;20427;-47
2022/10/28 10:53:15;;;;;;;18.35;4.97;;;;;;;31.31;33.33;99566.41;5071065;28;20032;-47
2022/10/28 10:55:41;;;;;;;20.70;5.40;;;;;;;31.55;31.31;99559.75;5055414;28;20488;-47
2022/10/28 10:58:19;;;;;;;18.20;5.32;;;;;;;30.71;32.35;99556.16;5054089;28;20033;-47
2022/10/28 11:00:54;;;;;;;21.90;5.03;;;;;;;30.26;33.42;99555.16;5053998;28;20068;-47
2022/10/28 11:03:37;;;;;;;26.80;5.80;;;;;;;30.20;34.10;99556.38;5055248;28;20071;-47
2022/10/28 11:06:06;;;;;;;17.67;4.70;;;;;;;29.90;34.26;99557.13;5055181;28;20029;-47
2022/10/28 11:08:42;;;;;;;26.85;5.68;;;;;;;29.73;34.18;99555.91;5055134;28;20033;-47
2022/10/28 11:11:21;;;;;;;29.50;5.28;;;;;;;29.65;34.66;99541.16;5055341;28;20123;-47
2022/10/28 11:14:02;;;;;;;27.25;5.20;;;;;;;29.82;34.82;99527.00;5053698;28;20036;-47
2022/10/28 11:16:27;;;;;;;15.98;4.63;;;;;;;29.93;34.18;99514.00;5054813;28;20099;-47
2022/10/28 11:18:53;;;;;;;19.83;5.78;;;;;;;29.43;34.89;99516.78;5054825;28;20429;-47
2022/10/28 11:21:34;;;;;;;25.60;5.50;;;;;;;28.88;35.77;99509.56;5087180;28;20033;-46
2022/10/28 11:24:27;;;;;;;30.35;5.38;;;;;;;29.77;35.86;99516.28;5087213;28;20052;-47
2022/10/28 11:27:19;;;;;;;18.90;4.78;;;;;;;31.77;33.50;99501.78;5054791;28;20029;-47
2022/10/28 11:29:46;;;;;;;22.42;5.70;;;;;;;32.87;31.02;99493.09;5054759;28;20036;-47
2022/10/28 11:32:27;;;;;;;24.98;5.03;;;;;;;32.93;30.51;99484.41;5054668;28;20028;-47
2022/10/28 11:35:31;;;;;;;32.78;6.88;;;;;;;33.27;31.12;99477.16;5054689;28;20021;-47
2022/10/28 11:38:18;;;;;;;25.48;6.15;;;;;;;34.00;29.09;99481.28;5086856;28;20075;-47
2022/10/28 11:41:03;;;;;;;29.45;6.45;;;;;;;34.24;30.60;99474.31;5054568;28;20029;-47